< < Back
Terminal Aerodrome Forecast


Current Version              Previous Versions:   1  2  3  4  5  6  7  8  9  

Terminal Aerodrome Forecast

796
FTUS42 KGSP 042320
TAFCLT
TAF
KCLT 042320Z 0500/0524 22006KT P6SM FEW070 SCT130
     FM051500 21005KT P6SM SCT060
     FM051900 19006KT P6SM SCT060=



Latest METAR

763
SAUS70 KWBC 051500 RRA
MTRCLT
METAR KCLT 051452Z VRB03KT 10SM FEW050 23/13 A3036 RMK AO2 SLP273
T02330128 50001


USA.gov is the U.S. government's official web portal to all federal, state and local government web resources and services.